Time;durP1;ratioP1;P1;durP2;ratioP2;P2;SDS_P1;SDS_P2;PMS_P1;PMS_P2;Temp;Humidity;BMP_temperature;BMP_pressure;BME280_temperature;BME280_humidity;BME280_pressure;Samples;Min_cycle;Max_cycle;Signal;HPM_P1;HPM_P2
2023/06/25 00:02:13;;;;;;;8.63;4.50;;;18.10;99.90;;;;;;5053970;28;20587;-65
2023/06/25 00:04:39;;;;;;;7.07;4.20;;;18.10;37.40;;;;;;5053935;28;20082;-65
2023/06/25 00:07:05;;;;;;;7.85;4.55;;;18.80;99.90;;;;;;5053093;28;20033;-65
2023/06/25 00:09:30;;;;;;;7.57;5.15;;;18.00;99.90;;;;;;5052736;28;20066;-65
2023/06/25 00:11:56;;;;;;;5.68;4.10;;;18.30;99.90;;;;;;5054149;28;20439;-65
2023/06/25 00:14:22;;;;;;;7.30;4.65;;;18.40;99.90;;;;;;5054161;28;20045;-66
2023/06/25 00:16:47;;;;;;;6.80;4.55;;;18.20;99.90;;;;;;5054034;28;20144;-65
2023/06/25 00:19:17;;;;;;;9.38;4.68;;;18.00;1.00;;;;;;5052767;28;20523;-65
2023/06/25 00:21:43;;;;;;;8.20;4.90;;;18.20;99.90;;;;;;5053946;28;20045;-65
2023/06/25 00:24:08;;;;;;;10.68;5.07;;;17.80;1.00;;;;;;5054002;28;20471;-65
2023/06/25 00:26:34;;;;;;;14.32;4.97;;;18.30;99.90;;;;;;5053953;28;20079;-65
2023/06/25 00:28:59;;;;;;;7.93;5.32;;;18.60;99.90;;;;;;5053908;28;20490;-65
2023/06/25 00:31:25;;;;;;;7.25;4.95;;;18.10;8.40;;;;;;5053827;28;20095;-65
2023/06/25 00:33:51;;;;;;;8.10;5.30;;;18.00;99.90;;;;;;5052380;28;20051;-65
2023/06/25 00:36:16;;;;;;;8.60;5.30;;;17.90;99.90;;;;;;5053662;28;20090;-65
2023/06/25 00:38:42;;;;;;;8.02;4.88;;;17.70;24.70;;;;;;5053404;28;20505;-65
2023/06/25 00:41:11;;;;;;;8.65;5.70;;;17.50;1.00;;;;;;5053703;28;20051;-65
2023/06/25 00:43:41;;;;;;;8.70;5.75;;;18.30;1.90;;;;;;5053525;28;20041;-65
2023/06/25 00:46:15;;;;;;;13.40;5.78;;;17.60;99.90;;;;;;5053612;28;20096;-65
2023/06/25 00:48:45;;;;;;;9.30;5.55;;;17.60;99.90;;;;;;5053558;28;20495;-65
2023/06/25 00:51:14;;;;;;;9.82;5.85;;;17.20;99.90;;;;;;5053554;28;20051;-65
2023/06/25 00:53:40;;;;;;;8.50;5.25;;;17.50;99.90;;;;;;5053103;28;20037;-65
2023/06/25 00:56:06;;;;;;;9.40;6.10;;;17.60;99.90;;;;;;5053432;28;20090;-65
2023/06/25 00:58:36;;;;;;;8.90;5.60;;;17.40;1.00;;;;;;5053073;28;20040;-66
2023/06/25 01:01:04;;;;;;;7.70;5.57;;;17.50;99.90;;;;;;5053333;28;20047;-66
2023/06/25 01:03:37;;;;;;;10.18;5.88;;;17.50;99.90;;;;;;5052920;28;20049;-65
2023/06/25 01:06:08;;;;;;;9.63;6.13;;;17.40;99.90;;;;;;5053273;28;20033;-65
2023/06/25 01:08:37;;;;;;;11.90;6.05;;;17.40;1.00;;;;;;5053124;28;20041;-65
2023/06/25 01:11:05;;;;;;;8.82;5.65;;;17.40;99.90;;;;;;5053200;28;20499;-65
2023/06/25 01:13:31;;;;;;;10.57;6.05;;;17.40;1.00;;;;;;5053274;28;20041;-65
2023/06/25 01:15:56;;;;;;;9.10;6.70;;;17.40;1.00;;;;;;5053052;28;20072;-65
2023/06/25 01:18:23;;;;;;;9.25;6.38;;;17.40;1.00;;;;;;5052782;28;20072;-65
2023/06/25 01:20:51;;;;;;;11.80;6.57;;;17.80;1.00;;;;;;5053001;28;20037;-65
2023/06/25 01:23:17;;;;;;;8.30;5.70;;;17.30;1.00;;;;;;5052646;28;20040;-65
2023/06/25 01:25:47;;;;;;;8.75;6.13;;;17.30;1.00;;;;;;5052635;28;20033;-65
2023/06/25 01:28:13;;;;;;;10.93;7.25;;;17.30;1.00;;;;;;5052973;28;20059;-65
2023/06/25 01:30:39;;;;;;;9.15;5.82;;;17.30;1.00;;;;;;5052946;28;20170;-65
2023/06/25 01:33:04;;;;;;;8.65;5.88;;;17.30;1.00;;;;;;5052898;28;20087;-65
2023/06/25 01:35:30;;;;;;;8.07;5.82;;;17.30;1.00;;;;;;5052519;28;20455;-65
2023/06/25 01:37:56;;;;;;;8.35;5.85;;;17.40;1.00;;;;;;5051582;28;20080;-65
2023/06/25 01:40:22;;;;;;;8.75;6.40;;;17.30;4.50;;;;;;5051579;28;20485;-68
2023/06/25 01:42:47;;;;;;;8.70;6.13;;;17.10;1.00;;;;;;5052384;28;20055;-65
2023/06/25 01:45:13;;;;;;;13.85;6.70;;;17.10;39.40;;;;;;5052807;28;20120;-65
2023/06/25 01:47:39;;;;;;;11.73;6.53;;;16.80;26.20;;;;;;5052660;28;20387;-65
2023/06/25 01:50:05;;;;;;;9.45;6.45;;;17.10;28.40;;;;;;5052794;28;20481;-65
2023/06/25 01:52:32;;;;;;;9.63;6.90;;;17.10;29.10;;;;;;5067919;28;20107;-65
2023/06/25 01:54:58;;;;;;;10.50;6.18;;;17.10;33.00;;;;;;5052689;28;20099;-65
2023/06/25 01:57:23;;;;;;;11.73;7.10;;;17.10;21.80;;;;;;5052406;28;20052;-65
2023/06/25 01:59:49;;;;;;;11.68;6.50;;;17.20;7.30;;;;;;5052634;28;20037;-65
2023/06/25 02:02:14;;;;;;;11.98;7.60;;;17.10;31.80;;;;;;5052582;28;20048;-65
2023/06/25 02:04:40;;;;;;;8.70;6.68;;;17.10;25.60;;;;;;5052166;28;20140;-65
2023/06/25 02:07:06;;;;;;;11.93;7.43;;;17.10;20.90;;;;;;5052566;28;20067;-65
2023/06/25 02:09:32;;;;;;;12.13;7.88;;;17.10;22.30;;;;;;5051070;28;20041;-65
2023/06/25 02:11:58;;;;;;;10.00;7.35;;;17.10;7.60;;;;;;5052613;28;20045;-65
2023/06/25 02:14:23;;;;;;;10.05;7.05;;;17.70;10.80;;;;;;5052431;28;20047;-65
2023/06/25 02:16:49;;;;;;;8.98;6.97;;;17.00;29.30;;;;;;5052243;28;20037;-65
2023/06/25 02:19:15;;;;;;;9.75;7.45;;;17.00;42.00;;;;;;5052418;28;20045;-65
2023/06/25 02:21:40;;;;;;;10.02;7.45;;;17.00;39.90;;;;;;5050917;28;20037;-65
2023/06/25 02:24:06;;;;;;;12.07;7.38;;;16.70;37.30;;;;;;5052461;28;20036;-65
2023/06/25 02:26:32;;;;;;;14.02;7.63;;;16.90;48.20;;;;;;5052421;28;20071;-65
2023/06/25 02:28:57;;;;;;;10.05;6.57;;;16.90;45.00;;;;;;5052316;28;20553;-65
2023/06/25 02:31:23;;;;;;;11.32;7.47;;;17.20;28.80;;;;;;5052372;28;20040;-65
2023/06/25 02:33:48;;;;;;;13.93;7.03;;;17.00;13.40;;;;;;5052358;28;20536;-65
2023/06/25 02:36:14;;;;;;;10.55;6.53;;;16.80;8.40;;;;;;5052392;28;20047;-65
2023/06/25 02:38:40;;;;;;;8.98;6.60;;;16.80;41.40;;;;;;5051999;28;20044;-65
2023/06/25 02:41:05;;;;;;;12.90;6.85;;;17.10;17.00;;;;;;5051014;28;20051;-65
2023/06/25 02:43:31;;;;;;;9.80;6.30;;;16.90;14.90;;;;;;5052155;28;20098;-65
2023/06/25 02:45:56;;;;;;;8.52;6.68;;;16.90;16.90;;;;;;5052235;28;20493;-65
2023/06/25 02:48:22;;;;;;;11.90;6.50;;;17.40;21.60;;;;;;5053658;28;20037;-65
2023/06/25 02:50:48;;;;;;;9.65;6.35;;;17.40;11.40;;;;;;5055814;28;20067;-65
2023/06/25 02:53:14;;;;;;;7.53;6.03;;;17.90;1.00;;;;;;5054158;28;20053;-65
2023/06/25 02:55:39;;;;;;;11.23;6.85;;;16.80;2.60;;;;;;5055340;28;20089;-65
2023/06/25 02:58:05;;;;;;;10.07;6.50;;;17.20;18.30;;;;;;5055632;28;20033;-65
2023/06/25 03:00:30;;;;;;;12.38;6.35;;;16.80;12.60;;;;;;5055593;28;20048;-65
2023/06/25 03:02:56;;;;;;;9.63;5.95;;;16.80;18.80;;;;;;5055224;28;20107;-65
2023/06/25 03:05:22;;;;;;;8.57;5.68;;;16.70;7.70;;;;;;5055487;28;20234;-65
2023/06/25 03:07:56;;;;;;;9.25;6.00;;;16.50;1.00;;;;;;5055200;28;20052;-65
2023/06/25 03:10:30;;;;;;;9.45;6.18;;;16.80;1.00;;;;;;5055194;28;20047;-66
2023/06/25 03:12:56;;;;;;;15.13;6.78;;;16.70;1.00;;;;;;5055361;28;20048;-65
2023/06/25 03:15:22;;;;;;;7.53;6.07;;;16.70;39.30;;;;;;5055012;28;20090;-65
2023/06/25 03:17:48;;;;;;;8.02;5.82;;;16.70;31.10;;;;;;5055273;28;20045;-65
2023/06/25 03:20:14;;;;;;;11.15;6.82;;;16.70;27.80;;;;;;5055198;28;20443;-65
2023/06/25 03:22:40;;;;;;;9.40;6.05;;;16.60;33.40;;;;;;5055147;28;20041;-65
2023/06/25 03:25:06;;;;;;;8.02;5.70;;;16.60;24.10;;;;;;5055188;28;20069;-65
2023/06/25 03:27:33;;;;;;;11.45;6.40;;;16.60;41.00;;;;;;5054834;28;20037;-65
2023/06/25 03:29:59;;;;;;;9.80;6.60;;;16.60;21.20;;;;;;5054999;28;20040;-65
2023/06/25 03:32:25;;;;;;;8.13;6.05;;;16.20;25.60;;;;;;5054651;28;20040;-65
2023/06/25 03:34:51;;;;;;;10.13;6.18;;;16.80;18.70;;;;;;5054975;28;20049;-65
2023/06/25 03:37:16;;;;;;;8.68;6.10;;;16.60;33.60;;;;;;5054915;28;20094;-65
2023/06/25 03:39:42;;;;;;;11.30;5.93;;;16.60;31.20;;;;;;5054841;28;20041;-65
2023/06/25 03:42:08;;;;;;;7.90;5.43;;;16.30;19.70;;;;;;5054638;28;20033;-65
2023/06/25 03:44:33;;;;;;;10.70;5.70;;;16.60;16.90;;;;;;5054557;28;20508;-65
2023/06/25 03:47:00;;;;;;;6.72;5.25;;;16.60;16.00;;;;;;5054724;28;20122;-65
2023/06/25 03:49:26;;;;;;;7.05;4.75;;;16.60;20.30;;;;;;5053382;28;20494;-65
2023/06/25 03:51:51;;;;;;;10.10;5.88;;;16.60;26.30;;;;;;5054570;28;20033;-65
2023/06/25 03:54:17;;;;;;;7.85;4.97;;;17.10;15.80;;;;;;5054569;28;20032;-65
2023/06/25 03:56:42;;;;;;;13.18;5.88;;;16.90;9.00;;;;;;5054534;28;20033;-65
2023/06/25 03:59:08;;;;;;;8.25;6.07;;;16.40;12.00;;;;;;5054247;28;20439;-67
2023/06/25 04:01:34;;;;;;;10.00;5.70;;;16.60;19.10;;;;;;5054450;28;20033;-65
2023/06/25 04:03:59;;;;;;;7.10;4.97;;;16.70;13.90;;;;;;5036047;28;20084;-65
2023/06/25 04:06:25;;;;;;;9.50;5.55;;;16.80;9.80;;;;;;5054322;28;20473;-65
2023/06/25 04:08:50;;;;;;;9.68;6.45;;;16.80;9.90;;;;;;5054265;28;20040;-65
2023/06/25 04:11:16;;;;;;;8.48;5.88;;;16.80;17.40;;;;;;5053943;28;20508;-65
2023/06/25 04:13:41;;;;;;;9.52;6.35;;;16.80;13.00;;;;;;5053978;28;20131;-65
2023/06/25 04:16:09;;;;;;;10.98;6.05;;;16.50;9.70;;;;;;5052620;28;20467;-65
2023/06/25 04:18:34;;;;;;;8.82;5.40;;;16.80;7.50;;;;;;5054083;28;20083;-65
2023/06/25 04:21:00;;;;;;;10.32;6.07;;;16.90;2.40;;;;;;5054029;28;20072;-65
2023/06/25 04:23:26;;;;;;;8.25;5.43;;;16.90;6.70;;;;;;5053684;28;20056;-65
2023/06/25 04:25:52;;;;;;;10.55;6.75;;;16.90;2.10;;;;;;5053980;28;20491;-65
2023/06/25 04:28:17;;;;;;;9.10;5.75;;;17.00;1.00;;;;;;5053908;28;20036;-65
2023/06/25 04:30:43;;;;;;;9.38;6.20;;;17.10;1.00;;;;;;5053876;28;20076;-65
2023/06/25 04:33:09;;;;;;;7.63;5.57;;;17.10;1.00;;;;;;5053837;28;20134;-65
2023/06/25 04:35:34;;;;;;;10.57;6.57;;;17.20;1.00;;;;;;5053746;28;20069;-65
2023/06/25 04:38:00;;;;;;;14.07;5.97;;;17.30;1.00;;;;;;5052196;28;20048;-65
2023/06/25 04:40:26;;;;;;;10.85;6.63;;;17.30;1.00;;;;;;5053681;28;20040;-67
2023/06/25 04:42:51;;;;;;;9.10;5.55;;;17.40;1.00;;;;;;5053596;28;20037;-65
2023/06/25 04:45:18;;;;;;;8.85;6.50;;;17.40;1.00;;;;;;5053594;28;20037;-65
2023/06/25 04:47:44;;;;;;;7.75;5.97;;;17.50;1.00;;;;;;5053584;28;20033;-65
2023/06/25 04:50:09;;;;;;;8.10;5.35;;;17.50;1.00;;;;;;5053522;28;20098;-65
2023/06/25 04:52:35;;;;;;;9.57;7.03;;;17.60;1.00;;;;;;5053207;28;20563;-65
2023/06/25 04:55:01;;;;;;;9.40;6.07;;;17.60;1.00;;;;;;5051876;28;20485;-65
2023/06/25 04:57:26;;;;;;;10.48;6.22;;;17.60;1.00;;;;;;5051850;28;20534;-65
2023/06/25 04:59:52;;;;;;;10.52;6.70;;;17.80;1.00;;;;;;5053928;28;20134;-62
2023/06/25 05:02:17;;;;;;;11.63;6.45;;;17.90;99.90;;;;;;5051724;28;20057;-62
2023/06/25 05:04:43;;;;;;;10.35;6.40;;;18.00;99.90;;;;;;5051605;28;20049;-62
2023/06/25 05:07:09;;;;;;;10.13;5.75;;;18.10;99.90;;;;;;5053233;28;20552;-62
2023/06/25 05:09:35;;;;;;;9.10;5.80;;;18.10;99.90;;;;;;5052793;28;20175;-62
2023/06/25 05:12:01;;;;;;;9.75;6.28;;;18.30;99.90;;;;;;5052563;28;20162;-63
2023/06/25 05:14:27;;;;;;;9.65;5.78;;;18.40;1.50;;;;;;5053134;28;20040;-62
2023/06/25 05:16:52;;;;;;;7.63;5.47;;;18.40;99.90;;;;;;5053068;28;20037;-63
2023/06/25 05:19:19;;;;;;;8.93;5.60;;;18.50;99.90;;;;;;5052813;28;20051;-62
2023/06/25 05:21:44;;;;;;;8.82;5.38;;;18.50;1.00;;;;;;5052619;28;20037;-63
2023/06/25 05:24:10;;;;;;;8.43;5.55;;;18.60;99.90;;;;;;5051854;28;20033;-62
2023/06/25 05:26:36;;;;;;;10.13;6.15;;;18.70;55.40;;;;;;5051423;28;20067;-62
2023/06/25 05:29:02;;;;;;;11.35;5.88;;;18.80;57.60;;;;;;5052640;28;20033;-62
2023/06/25 05:31:29;;;;;;;10.15;5.63;;;18.80;1.00;;;;;;5052549;28;20032;-62
2023/06/25 05:33:54;;;;;;;11.27;5.80;;;19.00;99.90;;;;;;5052900;28;20087;-62
2023/06/25 05:36:21;;;;;;;6.15;4.65;;;19.10;99.90;;;;;;5051655;28;20041;-62
2023/06/25 05:38:46;;;;;;;12.90;6.25;;;19.20;99.90;;;;;;5052820;28;20051;-62
2023/06/25 05:41:13;;;;;;;7.97;5.63;;;19.90;99.90;;;;;;5052828;28;20045;-62
2023/06/25 05:43:39;;;;;;;12.80;5.85;;;19.70;99.90;;;;;;5051196;28;20155;-62
2023/06/25 05:46:04;;;;;;;7.97;5.13;;;19.40;99.90;;;;;;5052760;28;20037;-62
2023/06/25 05:48:30;;;;;;;7.85;5.32;;;19.50;92.60;;;;;;5052429;28;20056;-64
2023/06/25 05:50:55;;;;;;;8.15;5.10;;;19.60;1.00;;;;;;5052753;28;20108;-62
2023/06/25 05:53:24;;;;;;;8.73;5.95;;;20.00;99.90;;;;;;5052406;28;20048;-63
2023/06/25 05:55:50;;;;;;;9.13;5.40;;;19.90;99.90;;;;;;5052677;28;20415;-62
2023/06/25 05:58:16;;;;;;;8.80;4.85;;;20.30;1.00;;;;;;5052668;28;20033;-69
2023/06/25 06:00:41;;;;;;;9.35;4.97;;;20.10;99.90;;;;;;5051103;28;20076;-64
2023/06/25 06:03:07;;;;;;;8.20;5.03;;;20.30;99.90;;;;;;5052316;28;20519;-63
2023/06/25 06:05:33;;;;;;;7.43;4.63;;;20.60;1.00;;;;;;5051401;28;20096;-63
2023/06/25 06:07:58;;;;;;;8.00;5.63;;;21.10;99.90;;;;;;5052584;28;20083;-63
2023/06/25 06:10:24;;;;;;;7.15;4.70;;;20.50;99.90;;;;;;5052480;28;20542;-63
2023/06/25 06:12:49;;;;;;;7.85;5.05;;;20.60;1.00;;;;;;5050999;28;20127;-63
2023/06/25 06:15:16;;;;;;;6.05;4.38;;;20.80;1.00;;;;;;5052473;28;20049;-63
2023/06/25 06:17:41;;;;;;;6.90;4.75;;;20.80;1.00;;;;;;5052174;28;20091;-63
2023/06/25 06:20:07;;;;;;;7.13;5.13;;;21.00;1.00;;;;;;5050895;28;20084;-63
2023/06/25 06:22:33;;;;;;;8.15;5.25;;;21.10;99.90;;;;;;5054101;28;20073;-63
2023/06/25 06:24:59;;;;;;;7.13;4.80;;;21.40;99.90;;;;;;5055984;28;20531;-63
2023/06/25 06:27:24;;;;;;;7.38;5.07;;;21.20;1.00;;;;;;5055950;28;20041;-63
2023/06/25 06:29:50;;;;;;;5.55;4.10;;;21.60;1.00;;;;;;5054675;28;20123;-62
2023/06/25 06:32:15;;;;;;;9.27;5.75;;;21.50;1.00;;;;;;5055810;28;20464;-68
2023/06/25 06:34:41;;;;;;;8.05;4.93;;;21.90;99.90;;;;;;5055967;28;20090;-63
2023/06/25 06:37:07;;;;;;;7.88;5.40;;;21.90;99.90;;;;;;5055958;28;20041;-64
2023/06/25 06:39:33;;;;;;;14.80;5.47;;;22.30;53.40;;;;;;5055935;28;20044;-64
2023/06/25 06:41:59;;;;;;;8.68;5.47;;;22.20;94.80;;;;;;5055952;28;20049;-63
2023/06/25 06:44:25;;;;;;;8.40;5.93;;;22.20;99.90;;;;;;5055895;28;20041;-66
2023/06/25 06:46:51;;;;;;;8.45;4.80;;;22.70;75.70;;;;;;5055850;28;20040;-64
2023/06/25 06:49:17;;;;;;;7.50;5.18;;;22.50;85.30;;;;;;5055858;28;20080;-63
2023/06/25 06:51:43;;;;;;;9.27;5.45;;;22.20;99.90;;;;;;5055743;28;20052;-64
2023/06/25 06:54:09;;;;;;;11.10;5.93;;;22.80;99.90;;;;;;5054342;28;20560;-62
2023/06/25 06:56:35;;;;;;;7.90;5.05;;;22.70;99.90;;;;;;5055659;28;20476;-62
2023/06/25 06:59:00;;;;;;;8.88;5.80;;;22.70;99.90;;;;;;5055696;28;20476;-62
2023/06/25 07:01:26;;;;;;;8.40;5.82;;;22.70;99.90;;;;;;5055600;28;20037;-62
2023/06/25 07:03:52;;;;;;;8.75;5.47;;;22.80;99.90;;;;;;5055248;28;20459;-62
2023/06/25 07:06:17;;;;;;;9.52;5.97;;;23.10;99.90;;;;;;5055422;28;20116;-62
2023/06/25 07:08:43;;;;;;;8.02;5.43;;;22.90;98.80;;;;;;5055444;28;20037;-63
2023/06/25 07:11:08;;;;;;;8.05;5.82;;;23.10;99.30;;;;;;5055474;28;20068;-63
2023/06/25 07:13:34;;;;;;;8.57;5.95;;;23.20;78.90;;;;;;5055208;28;20045;-63
2023/06/25 07:16:00;;;;;;;9.38;6.07;;;23.30;87.00;;;;;;5055325;28;20041;-63
2023/06/25 07:18:25;;;;;;;9.10;6.28;;;23.30;78.70;;;;;;5055261;28;20033;-63
2023/06/25 07:20:51;;;;;;;9.00;5.43;;;23.50;67.60;;;;;;5055217;28;20036;-63
2023/06/25 07:23:17;;;;;;;12.00;6.68;;;23.50;59.90;;;;;;5055120;28;20036;-63
2023/06/25 07:25:42;;;;;;;10.23;6.75;;;23.60;58.70;;;;;;5055165;28;20037;-63
2023/06/25 07:28:11;;;;;;;9.63;6.35;;;23.70;37.70;;;;;;5055129;28;20491;-62
2023/06/25 07:30:38;;;;;;;8.02;5.88;;;23.80;45.00;;;;;;5054788;28;20037;-62
2023/06/25 07:33:04;;;;;;;7.72;5.57;;;23.90;32.30;;;;;;5054831;28;20500;-63
2023/06/25 07:35:29;;;;;;;12.57;6.15;;;24.10;37.60;;;;;;5054427;28;20052;-63
2023/06/25 07:37:55;;;;;;;10.65;6.13;;;24.20;32.70;;;;;;5054914;28;20044;-63
2023/06/25 07:40:20;;;;;;;8.48;5.53;;;24.30;27.00;;;;;;5054930;28;20045;-63
2023/06/25 07:42:46;;;;;;;10.60;6.57;;;24.60;25.40;;;;;;5054766;28;20041;-63
2023/06/25 07:45:12;;;;;;;7.68;5.88;;;24.80;21.00;;;;;;5054802;28;20127;-63
2023/06/25 07:47:37;;;;;;;7.95;5.93;;;24.60;17.30;;;;;;5054433;28;20037;-62
2023/06/25 07:50:04;;;;;;;6.97;5.18;;;24.70;12.80;;;;;;5054499;28;20041;-63
2023/06/25 07:52:29;;;;;;;7.93;5.57;;;24.80;14.30;;;;;;5054555;28;20395;-63
2023/06/25 07:54:55;;;;;;;7.80;5.82;;;;;;;;;;5053173;28;20037;-63
2023/06/25 07:57:21;;;;;;;11.07;6.32;;;24.80;99.90;;;;;;5054298;28;20089;-63
2023/06/25 07:59:47;;;;;;;8.48;6.05;;;25.20;99.90;;;;;;5054281;28;20078;-63
2023/06/25 08:02:13;;;;;;;9.15;5.63;;;25.20;25.90;;;;;;5054427;28;20045;-63
2023/06/25 08:04:38;;;;;;;7.65;5.38;;;25.30;5.00;;;;;;5054039;28;20053;-63
2023/06/25 08:07:04;;;;;;;8.40;5.70;;;25.60;4.10;;;;;;5054410;28;20081;-62
2023/06/25 08:09:31;;;;;;;6.22;5.32;;;25.40;10.80;;;;;;5054245;28;20033;-63
2023/06/25 08:11:57;;;;;;;9.80;6.63;;;25.70;4.40;;;;;;5054007;28;20041;-63
2023/06/25 08:14:22;;;;;;;8.40;5.88;;;26.00;6.90;;;;;;5054233;28;20124;-63
2023/06/25 08:16:48;;;;;;;7.93;5.30;;;25.40;1.00;;;;;;5054177;28;20068;-63
2023/06/25 08:19:13;;;;;;;8.25;5.75;;;25.60;1.00;;;;;;5054118;28;20047;-63
2023/06/25 08:21:39;;;;;;;7.80;6.57;;;25.70;1.00;;;;;;5054060;28;20041;-63
2023/06/25 08:24:05;;;;;;;7.63;5.97;;;25.80;1.00;;;;;;5053615;28;20083;-63
2023/06/25 08:26:30;;;;;;;7.32;5.35;;;25.90;1.00;;;;;;5053698;28;20033;-62
2023/06/25 08:28:56;;;;;;;7.78;5.45;;;25.80;1.00;;;;;;5053930;28;20040;-63
2023/06/25 08:31:22;;;;;;;6.47;5.00;;;25.80;1.00;;;;;;5053893;28;20476;-63
2023/06/25 08:33:47;;;;;;;7.25;5.00;;;25.90;1.00;;;;;;5053490;28;20033;-63
2023/06/25 08:36:13;;;;;;;8.95;5.43;;;25.90;1.00;;;;;;5053764;28;20107;-63
2023/06/25 08:38:39;;;;;;;6.47;5.13;;;26.20;1.00;;;;;;5053671;28;20043;-63
2023/06/25 08:41:04;;;;;;;6.38;4.47;;;26.50;1.00;;;;;;5053765;28;20075;-62
2023/06/25 08:43:30;;;;;;;8.77;5.72;;;26.40;1.00;;;;;;5053617;28;20579;-63
2023/06/25 08:45:56;;;;;;;6.35;5.30;;;26.40;1.00;;;;;;5052768;28;20040;-63
2023/06/25 08:48:23;;;;;;;9.00;5.85;;;26.50;1.00;;;;;;5053600;28;20029;-63
2023/06/25 08:51:03;;;;;;;6.43;4.30;;;26.50;1.00;;;;;;5053615;28;20033;-63
2023/06/25 08:53:29;;;;;;;6.32;4.47;;;26.50;1.00;;;;;;5053259;28;20033;-63
2023/06/25 08:55:58;;;;;;;7.28;5.03;;;26.70;1.00;;;;;;5053504;28;20037;-63
2023/06/25 08:58:24;;;;;;;5.57;4.72;;;26.70;1.00;;;;;;5053278;28;20032;-63
2023/06/25 09:00:50;;;;;;;6.15;4.68;;;26.60;1.00;;;;;;5053106;28;20106;-63
2023/06/25 09:03:16;;;;;;;5.80;4.13;;;26.90;1.00;;;;;;5053015;28;20049;-63
2023/06/25 09:05:51;;;;;;;5.47;4.35;;;27.00;1.00;;;;;;5053064;28;20044;-63
2023/06/25 09:08:17;;;;;;;5.97;3.78;;;27.10;1.00;;;;;;5053293;28;20031;-62
2023/06/25 09:10:43;;;;;;;7.28;4.70;;;27.10;1.00;;;;;;5053218;28;20048;-63
2023/06/25 09:13:11;;;;;;;4.90;4.18;;;27.20;1.00;;;;;;5053666;28;20476;-64
2023/06/25 09:15:41;;;;;;;4.15;3.72;;;27.10;1.00;;;;;;5053143;28;20037;-65
2023/06/25 09:18:07;;;;;;;6.93;4.18;;;27.30;1.00;;;;;;5052958;28;20041;-65
2023/06/25 09:20:33;;;;;;;7.20;3.90;;;27.20;1.00;;;;;;5052617;28;20045;-66
2023/06/25 09:23:04;;;;;;;5.30;3.75;;;27.30;1.00;;;;;;5052805;28;20041;-66
2023/06/25 09:25:30;;;;;;;5.82;3.40;;;27.40;1.00;;;;;;5052662;28;20083;-65
2023/06/25 09:27:59;;;;;;;5.70;3.88;;;27.40;1.00;;;;;;5052587;28;20073;-65
2023/06/25 09:30:27;;;;;;;5.22;3.72;;;27.40;1.00;;;;;;5052776;28;20040;-65
2023/06/25 09:32:54;;;;;;;4.45;3.47;;;27.50;1.00;;;;;;5052821;28;20048;-66
2023/06/25 09:35:21;;;;;;;3.92;3.53;;;27.50;1.00;;;;;;5052768;28;20065;-66
2023/06/25 09:37:49;;;;;;;4.18;3.28;;;27.60;1.00;;;;;;5052798;28;20377;-66
2023/06/25 09:40:14;;;;;;;4.90;3.60;;;27.60;1.00;;;;;;5052729;28;20532;-66
2023/06/25 09:42:43;;;;;;;5.93;3.58;;;27.70;1.00;;;;;;5051082;28;20124;-65
2023/06/25 09:45:12;;;;;;;5.28;3.80;;;27.70;1.00;;;;;;5052803;28;20082;-65
2023/06/25 09:47:41;;;;;;;4.90;3.63;;;27.80;1.00;;;;;;5052344;28;20040;-66
2023/06/25 09:50:09;;;;;;;5.85;3.60;;;27.80;1.00;;;;;;5052623;28;20442;-65
2023/06/25 09:52:36;;;;;;;3.97;3.08;;;27.80;1.00;;;;;;5052270;28;20123;-66
2023/06/25 09:55:04;;;;;;;6.68;3.08;;;27.80;1.00;;;;;;5052283;28;20049;-66
2023/06/25 09:57:31;;;;;;;5.03;3.53;;;27.80;1.00;;;;;;5054403;28;20128;-66
2023/06/25 09:59:57;;;;;;;4.22;2.58;;;27.80;1.00;;;;;;5056618;28;20040;-66
2023/06/25 10:02:23;;;;;;;3.80;2.47;;;27.80;1.00;;;;;;5054979;28;20052;-66
2023/06/25 10:04:49;;;;;;;5.65;2.67;;;27.90;1.00;;;;;;5056010;28;20053;-65
2023/06/25 10:07:15;;;;;;;3.95;2.38;;;28.00;1.00;;;;;;5056505;28;20468;-65
2023/06/25 10:09:52;;;;;;;3.30;2.28;;;27.80;1.00;;;;;;5056480;28;20032;-65
2023/06/25 10:12:18;;;;;;;3.67;2.55;;;27.80;1.00;;;;;;5056443;28;20120;-65
2023/06/25 10:14:44;;;;;;;5.00;2.80;;;27.90;1.00;;;;;;5056281;28;20460;-65
2023/06/25 10:17:10;;;;;;;4.45;3.00;;;27.90;1.00;;;;;;5056274;28;20120;-66
2023/06/25 10:19:35;;;;;;;3.55;2.97;;;28.10;1.00;;;;;;5055902;28;20472;-66
2023/06/25 10:22:12;;;;;;;2.88;2.20;;;28.10;1.00;;;;;;5056040;28;20037;-66
2023/06/25 10:24:41;;;;;;;5.80;2.70;;;28.10;1.00;;;;;;5055995;28;20040;-65
2023/06/25 10:27:20;;;;;;;3.72;2.58;;;28.10;1.00;;;;;;5055913;28;20391;-65
2023/06/25 10:29:46;;;;;;;4.35;2.38;;;28.00;1.00;;;;;;5055902;28;20451;-66
2023/06/25 10:32:14;;;;;;;3.70;2.75;;;28.10;1.00;;;;;;5055963;28;20037;-65
2023/06/25 10:34:40;;;;;;;2.50;1.80;;;28.00;1.00;;;;;;5055776;28;20040;-65
2023/06/25 10:37:07;;;;;;;4.10;2.60;;;28.20;1.00;;;;;;5055757;28;20411;-65
2023/06/25 10:39:40;;;;;;;3.92;2.70;;;28.10;1.00;;;;;;5055864;28;20124;-66
2023/06/25 10:42:07;;;;;;;4.45;2.70;;;28.10;1.00;;;;;;5055486;28;20079;-66
2023/06/25 10:44:34;;;;;;;4.18;2.40;;;28.10;1.00;;;;;;5055876;28;20033;-65
2023/06/25 10:47:10;;;;;;;3.25;2.60;;;28.10;1.00;;;;;;5054487;28;20057;-65
2023/06/25 10:49:36;;;;;;;5.32;2.55;;;28.10;1.00;;;;;;5055377;28;20072;-66
2023/06/25 10:52:03;;;;;;;4.65;3.00;;;28.10;1.00;;;;;;5055698;28;20070;-65
2023/06/25 10:54:31;;;;;;;3.55;2.60;;;28.10;1.00;;;;;;5055634;28;20040;-65
2023/06/25 10:57:11;;;;;;;3.90;2.40;;;28.20;1.00;;;;;;5054142;28;20033;-65
2023/06/25 10:59:40;;;;;;;5.45;2.72;;;28.20;1.00;;;;;;5055662;28;20083;-65
2023/06/25 11:02:09;;;;;;;4.20;2.47;;;28.30;1.00;;;;;;5055393;28;20489;-65
2023/06/25 11:04:35;;;;;;;5.72;2.25;;;28.30;1.00;;;;;;5055001;28;20057;-66
2023/06/25 11:07:01;;;;;;;4.60;2.53;;;28.30;1.00;;;;;;5055290;28;20045;-65
2023/06/25 11:09:28;;;;;;;4.85;2.50;;;28.20;1.00;;;;;;5054204;28;20491;-65
2023/06/25 11:11:53;;;;;;;4.43;2.53;;;28.20;1.00;;;;;;5055330;28;20044;-66
2023/06/25 11:14:19;;;;;;;4.15;2.35;;;28.30;1.00;;;;;;5053753;28;20048;-65
2023/06/25 11:16:48;;;;;;;2.42;1.83;;;28.30;1.00;;;;;;5055143;28;20045;-66
2023/06/25 11:19:13;;;;;;;2.55;2.13;;;28.40;1.00;;;;;;5055137;28;20550;-66
2023/06/25 11:21:39;;;;;;;6.07;2.30;;;28.40;1.00;;;;;;5055138;28;20049;-65
2023/06/25 11:24:12;;;;;;;6.72;1.92;;;28.40;1.00;;;;;;5055041;28;20454;-65
2023/06/25 11:26:42;;;;;;;4.05;2.47;;;28.40;1.00;;;;;;5055110;28;20047;-65
2023/06/25 11:29:09;;;;;;;3.17;2.13;;;28.40;1.00;;;;;;5055186;28;20103;-65
2023/06/25 11:31:48;;;;;;;3.45;2.50;;;28.40;1.00;;;;;;5054739;28;20040;-66
2023/06/25 11:34:24;;;;;;;3.20;1.88;;;28.50;1.00;;;;;;5054702;28;20052;-65
2023/06/25 11:36:50;;;;;;;3.55;2.55;;;28.50;1.00;;;;;;5054630;28;20091;-65
2023/06/25 11:39:16;;;;;;;3.00;2.30;;;28.60;1.00;;;;;;5054645;28;20040;-66
2023/06/25 11:41:42;;;;;;;4.30;2.28;;;28.50;1.00;;;;;;5054918;28;20037;-65
2023/06/25 11:44:18;;;;;;;2.67;1.92;;;28.60;1.00;;;;;;5054848;28;20033;-66
2023/06/25 11:46:51;;;;;;;3.80;2.10;;;28.60;1.00;;;;;;5054693;28;20071;-66
2023/06/25 11:49:18;;;;;;;2.70;1.63;;;28.70;1.00;;;;;;5054459;28;20037;-65
2023/06/25 11:51:44;;;;;;;2.05;1.40;;;28.80;1.00;;;;;;5054634;28;20040;-66
2023/06/25 11:54:10;;;;;;;2.22;1.48;;;28.80;1.00;;;;;;5054688;28;20445;-65
2023/06/25 11:56:35;;;;;;;3.85;1.70;;;28.90;1.00;;;;;;5054312;28;20048;-65
2023/06/25 11:59:01;;;;;;;2.75;1.63;;;28.90;1.00;;;;;;5054590;28;20549;-65
2023/06/25 12:01:29;;;;;;;4.13;2.08;;;28.90;1.00;;;;;;5054528;28;20086;-66
2023/06/25 12:03:54;;;;;;;3.60;1.90;;;28.90;1.00;;;;;;5054114;28;20045;-65
2023/06/25 12:06:20;;;;;;;2.45;1.60;;;28.80;1.00;;;;;;5054406;28;20090;-65
2023/06/25 12:08:46;;;;;;;2.90;2.10;;;28.70;1.00;;;;;;5054293;28;20036;-66
2023/06/25 12:11:11;;;;;;;3.47;2.13;;;28.90;1.00;;;;;;5054320;28;20059;-66
2023/06/25 12:13:37;;;;;;;2.40;2.00;;;29.10;1.00;;;;;;5052553;28;20041;-65
2023/06/25 12:16:02;;;;;;;3.83;2.17;;;29.20;1.00;;;;;;5054146;28;20044;-65
2023/06/25 12:18:28;;;;;;;3.67;2.22;;;29.10;1.00;;;;;;5054108;28;20072;-65
2023/06/25 12:20:53;;;;;;;2.33;1.73;;;29.10;1.00;;;;;;5053922;28;20124;-65
2023/06/25 12:23:19;;;;;;;2.67;2.08;;;29.30;1.00;;;;;;5054007;28;20485;-66
2023/06/25 12:25:45;;;;;;;2.92;2.00;;;29.30;1.00;;;;;;5053700;28;20132;-65
2023/06/25 12:28:11;;;;;;;3.30;1.92;;;29.40;1.00;;;;;;5053898;28;20124;-66
2023/06/25 12:30:37;;;;;;;3.58;2.20;;;29.40;1.00;;;;;;5052389;28;20149;-66
2023/06/25 12:33:02;;;;;;;2.70;1.67;;;29.40;1.00;;;;;;5053889;28;20036;-65
2023/06/25 12:35:28;;;;;;;3.38;2.25;;;29.40;1.00;;;;;;5053773;28;20107;-65
2023/06/25 12:37:54;;;;;;;2.70;1.95;;;30.10;1.00;;;;;;5053370;28;20443;-65
2023/06/25 12:40:19;;;;;;;2.17;1.70;;;29.60;83.70;;;;;;5053602;28;20459;-66
2023/06/25 12:42:46;;;;;;;4.97;1.75;;;;;;;;;;5053315;28;20492;-66
2023/06/25 12:45:12;;;;;;;4.38;2.35;;;;;;;;;;5053153;28;20049;-66
2023/06/25 12:47:38;;;;;;;3.55;2.10;;;;;;;;;;5053448;28;20047;-66
2023/06/25 12:50:04;;;;;;;3.88;2.40;;;;;;;;;;5053466;28;20416;-66